sensor_id;sensor_type;location;lat;lon;timestamp;P1;durP1;ratioP1;P2;durP2;ratioP2
10122;SDS011;5101;49.038;8.710;2024-03-25T00:01:18;3.53;;;1.70;;
10122;SDS011;5101;49.038;8.710;2024-03-25T00:03:43;3.20;;;1.60;;
10122;SDS011;5101;49.038;8.710;2024-03-25T00:06:09;3.25;;;1.63;;
10122;SDS011;5101;49.038;8.710;2024-03-25T00:08:35;2.78;;;1.30;;
10122;SDS011;5101;49.038;8.710;2024-03-25T00:11:00;3.38;;;1.58;;
10122;SDS011;5101;49.038;8.710;2024-03-25T00:13:26;2.35;;;1.50;;
10122;SDS011;5101;49.038;8.710;2024-03-25T00:15:52;3.40;;;1.48;;
10122;SDS011;5101;49.038;8.710;2024-03-25T00:18:17;6.43;;;1.88;;
10122;SDS011;5101;49.038;8.710;2024-03-25T00:20:43;4.63;;;1.80;;
10122;SDS011;5101;49.038;8.710;2024-03-25T00:23:09;1.77;;;1.33;;
10122;SDS011;5101;49.038;8.710;2024-03-25T00:25:34;5.82;;;1.58;;
10122;SDS011;5101;49.038;8.710;2024-03-25T00:28:00;5.45;;;1.80;;
10122;SDS011;5101;49.038;8.710;2024-03-25T00:30:25;5.30;;;1.60;;
10122;SDS011;5101;49.038;8.710;2024-03-25T00:32:50;3.20;;;1.73;;
10122;SDS011;5101;49.038;8.710;2024-03-25T00:35:16;4.20;;;1.65;;
10122;SDS011;5101;49.038;8.710;2024-03-25T00:37:42;2.15;;;1.58;;
10122;SDS011;5101;49.038;8.710;2024-03-25T00:40:09;2.90;;;1.60;;
10122;SDS011;5101;49.038;8.710;2024-03-25T00:42:36;2.72;;;1.48;;
10122;SDS011;5101;49.038;8.710;2024-03-25T00:45:02;2.45;;;1.40;;
10122;SDS011;5101;49.038;8.710;2024-03-25T00:47:30;3.97;;;1.63;;
10122;SDS011;5101;49.038;8.710;2024-03-25T00:49:56;2.22;;;1.65;;
10122;SDS011;5101;49.038;8.710;2024-03-25T00:52:21;1.95;;;1.42;;
10122;SDS011;5101;49.038;8.710;2024-03-25T00:54:47;2.83;;;1.45;;
10122;SDS011;5101;49.038;8.710;2024-03-25T00:57:12;5.28;;;1.70;;
10122;SDS011;5101;49.038;8.710;2024-03-25T00:59:38;2.50;;;1.20;;
10122;SDS011;5101;49.038;8.710;2024-03-25T01:02:05;3.47;;;1.50;;
10122;SDS011;5101;49.038;8.710;2024-03-25T01:04:30;3.30;;;1.50;;
10122;SDS011;5101;49.038;8.710;2024-03-25T01:06:56;3.33;;;1.75;;
10122;SDS011;5101;49.038;8.710;2024-03-25T01:09:21;3.90;;;1.83;;
10122;SDS011;5101;49.038;8.710;2024-03-25T01:11:47;3.90;;;1.60;;
10122;SDS011;5101;49.038;8.710;2024-03-25T01:14:13;3.95;;;1.52;;
10122;SDS011;5101;49.038;8.710;2024-03-25T01:16:38;2.88;;;1.92;;
10122;SDS011;5101;49.038;8.710;2024-03-25T01:19:04;4.03;;;1.60;;
10122;SDS011;5101;49.038;8.710;2024-03-25T01:21:29;2.83;;;1.23;;
10122;SDS011;5101;49.038;8.710;2024-03-25T01:23:55;2.17;;;1.75;;
10122;SDS011;5101;49.038;8.710;2024-03-25T01:26:21;3.65;;;1.50;;
10122;SDS011;5101;49.038;8.710;2024-03-25T01:28:47;4.55;;;1.75;;
10122;SDS011;5101;49.038;8.710;2024-03-25T01:31:12;4.25;;;1.50;;
10122;SDS011;5101;49.038;8.710;2024-03-25T01:33:38;3.67;;;1.40;;
10122;SDS011;5101;49.038;8.710;2024-03-25T01:36:04;2.78;;;1.70;;
10122;SDS011;5101;49.038;8.710;2024-03-25T01:38:30;3.92;;;1.60;;
10122;SDS011;5101;49.038;8.710;2024-03-25T01:41:06;2.95;;;1.70;;
10122;SDS011;5101;49.038;8.710;2024-03-25T01:43:35;2.28;;;1.30;;
10122;SDS011;5101;49.038;8.710;2024-03-25T01:46:02;3.35;;;2.20;;
10122;SDS011;5101;49.038;8.710;2024-03-25T01:48:27;3.20;;;1.67;;
10122;SDS011;5101;49.038;8.710;2024-03-25T01:50:53;4.15;;;1.63;;
10122;SDS011;5101;49.038;8.710;2024-03-25T01:53:19;5.60;;;1.65;;
10122;SDS011;5101;49.038;8.710;2024-03-25T01:55:44;2.60;;;1.70;;
10122;SDS011;5101;49.038;8.710;2024-03-25T01:58:13;3.73;;;1.50;;
10122;SDS011;5101;49.038;8.710;2024-03-25T02:00:38;2.67;;;2.03;;
10122;SDS011;5101;49.038;8.710;2024-03-25T02:03:04;6.93;;;1.70;;
10122;SDS011;5101;49.038;8.710;2024-03-25T02:05:30;3.47;;;1.40;;
10122;SDS011;5101;49.038;8.710;2024-03-25T02:07:56;4.73;;;1.80;;
10122;SDS011;5101;49.038;8.710;2024-03-25T02:10:23;5.15;;;1.85;;
10122;SDS011;5101;49.038;8.710;2024-03-25T02:12:49;3.50;;;1.60;;
10122;SDS011;5101;49.038;8.710;2024-03-25T02:15:15;3.10;;;1.60;;
10122;SDS011;5101;49.038;8.710;2024-03-25T02:17:41;2.65;;;1.50;;
10122;SDS011;5101;49.038;8.710;2024-03-25T02:20:07;5.53;;;1.73;;
10122;SDS011;5101;49.038;8.710;2024-03-25T02:22:33;2.72;;;1.55;;
10122;SDS011;5101;49.038;8.710;2024-03-25T02:25:06;4.13;;;1.50;;
10122;SDS011;5101;49.038;8.710;2024-03-25T02:27:36;1.83;;;1.23;;
10122;SDS011;5101;49.038;8.710;2024-03-25T02:30:03;4.20;;;1.53;;
10122;SDS011;5101;49.038;8.710;2024-03-25T02:32:35;3.13;;;1.63;;
10122;SDS011;5101;49.038;8.710;2024-03-25T02:35:02;3.90;;;1.65;;
10122;SDS011;5101;49.038;8.710;2024-03-25T02:37:30;5.40;;;1.83;;
10122;SDS011;5101;49.038;8.710;2024-03-25T02:39:57;3.53;;;1.70;;
10122;SDS011;5101;49.038;8.710;2024-03-25T02:42:24;5.78;;;1.73;;
10122;SDS011;5101;49.038;8.710;2024-03-25T02:44:56;4.30;;;1.30;;
10122;SDS011;5101;49.038;8.710;2024-03-25T02:47:22;3.22;;;1.70;;
10122;SDS011;5101;49.038;8.710;2024-03-25T02:49:47;2.13;;;1.60;;
10122;SDS011;5101;49.038;8.710;2024-03-25T02:52:13;5.07;;;1.55;;
10122;SDS011;5101;49.038;8.710;2024-03-25T02:54:39;3.03;;;1.53;;
10122;SDS011;5101;49.038;8.710;2024-03-25T02:57:04;1.95;;;1.35;;
10122;SDS011;5101;49.038;8.710;2024-03-25T02:59:30;3.50;;;1.88;;
10122;SDS011;5101;49.038;8.710;2024-03-25T03:01:55;3.10;;;1.67;;
10122;SDS011;5101;49.038;8.710;2024-03-25T03:04:21;5.38;;;1.95;;
10122;SDS011;5101;49.038;8.710;2024-03-25T03:06:46;3.53;;;1.58;;
10122;SDS011;5101;49.038;8.710;2024-03-25T03:09:12;4.53;;;1.60;;
10122;SDS011;5101;49.038;8.710;2024-03-25T03:11:37;2.47;;;1.80;;
10122;SDS011;5101;49.038;8.710;2024-03-25T03:14:03;4.47;;;1.60;;
10122;SDS011;5101;49.038;8.710;2024-03-25T03:16:29;4.35;;;1.80;;
10122;SDS011;5101;49.038;8.710;2024-03-25T03:18:54;3.88;;;1.90;;
10122;SDS011;5101;49.038;8.710;2024-03-25T03:21:20;3.53;;;1.97;;
10122;SDS011;5101;49.038;8.710;2024-03-25T03:23:45;4.20;;;1.75;;
10122;SDS011;5101;49.038;8.710;2024-03-25T03:26:11;2.85;;;1.30;;
10122;SDS011;5101;49.038;8.710;2024-03-25T03:28:37;3.95;;;1.83;;
10122;SDS011;5101;49.038;8.710;2024-03-25T03:31:03;2.45;;;1.20;;
10122;SDS011;5101;49.038;8.710;2024-03-25T03:33:28;3.28;;;1.90;;
10122;SDS011;5101;49.038;8.710;2024-03-25T03:35:54;3.85;;;1.70;;
10122;SDS011;5101;49.038;8.710;2024-03-25T03:38:21;4.35;;;1.88;;
10122;SDS011;5101;49.038;8.710;2024-03-25T03:40:59;2.63;;;1.50;;
10122;SDS011;5101;49.038;8.710;2024-03-25T03:43:25;4.40;;;2.00;;
10122;SDS011;5101;49.038;8.710;2024-03-25T03:45:51;3.22;;;1.65;;
10122;SDS011;5101;49.038;8.710;2024-03-25T03:48:16;5.75;;;1.98;;
10122;SDS011;5101;49.038;8.710;2024-03-25T03:50:42;2.92;;;1.50;;
10122;SDS011;5101;49.038;8.710;2024-03-25T03:53:08;6.47;;;1.83;;
10122;SDS011;5101;49.038;8.710;2024-03-25T03:55:34;3.83;;;1.85;;
10122;SDS011;5101;49.038;8.710;2024-03-25T03:58:00;5.28;;;2.08;;
10122;SDS011;5101;49.038;8.710;2024-03-25T04:00:25;5.68;;;1.77;;
10122;SDS011;5101;49.038;8.710;2024-03-25T04:02:50;5.72;;;1.75;;
10122;SDS011;5101;49.038;8.710;2024-03-25T04:05:16;3.85;;;2.10;;
10122;SDS011;5101;49.038;8.710;2024-03-25T04:07:41;4.03;;;1.90;;
10122;SDS011;5101;49.038;8.710;2024-03-25T04:10:08;5.63;;;2.13;;
10122;SDS011;5101;49.038;8.710;2024-03-25T04:12:34;4.55;;;2.30;;
10122;SDS011;5101;49.038;8.710;2024-03-25T04:15:01;4.40;;;1.90;;
10122;SDS011;5101;49.038;8.710;2024-03-25T04:17:27;7.00;;;2.13;;
10122;SDS011;5101;49.038;8.710;2024-03-25T04:19:53;5.80;;;2.20;;
10122;SDS011;5101;49.038;8.710;2024-03-25T04:22:18;4.10;;;1.80;;
10122;SDS011;5101;49.038;8.710;2024-03-25T04:24:44;3.60;;;1.75;;
10122;SDS011;5101;49.038;8.710;2024-03-25T04:27:09;3.10;;;1.80;;
10122;SDS011;5101;49.038;8.710;2024-03-25T04:29:35;6.50;;;2.17;;
10122;SDS011;5101;49.038;8.710;2024-03-25T04:32:01;3.03;;;2.03;;
10122;SDS011;5101;49.038;8.710;2024-03-25T04:34:27;5.17;;;2.20;;
10122;SDS011;5101;49.038;8.710;2024-03-25T04:36:53;5.55;;;2.00;;
10122;SDS011;5101;49.038;8.710;2024-03-25T04:39:18;3.33;;;1.75;;
10122;SDS011;5101;49.038;8.710;2024-03-25T04:41:44;2.55;;;1.48;;
10122;SDS011;5101;49.038;8.710;2024-03-25T04:44:11;3.27;;;1.80;;
10122;SDS011;5101;49.038;8.710;2024-03-25T04:46:36;4.45;;;2.10;;
10122;SDS011;5101;49.038;8.710;2024-03-25T04:49:02;7.87;;;2.40;;
10122;SDS011;5101;49.038;8.710;2024-03-25T04:51:27;3.97;;;2.10;;
10122;SDS011;5101;49.038;8.710;2024-03-25T04:53:53;3.92;;;1.73;;
10122;SDS011;5101;49.038;8.710;2024-03-25T04:56:18;3.77;;;2.20;;
10122;SDS011;5101;49.038;8.710;2024-03-25T04:58:45;6.50;;;2.33;;
10122;SDS011;5101;49.038;8.710;2024-03-25T05:01:10;4.57;;;1.80;;
10122;SDS011;5101;49.038;8.710;2024-03-25T05:03:35;2.58;;;1.73;;
10122;SDS011;5101;49.038;8.710;2024-03-25T05:06:01;4.25;;;1.88;;
10122;SDS011;5101;49.038;8.710;2024-03-25T05:08:26;3.25;;;1.80;;
10122;SDS011;5101;49.038;8.710;2024-03-25T05:10:52;6.03;;;2.13;;
10122;SDS011;5101;49.038;8.710;2024-03-25T05:13:17;4.80;;;1.83;;
10122;SDS011;5101;49.038;8.710;2024-03-25T05:15:52;5.65;;;1.90;;
10122;SDS011;5101;49.038;8.710;2024-03-25T05:18:18;3.25;;;1.77;;
10122;SDS011;5101;49.038;8.710;2024-03-25T05:20:44;3.72;;;1.80;;
10122;SDS011;5101;49.038;8.710;2024-03-25T05:23:10;5.18;;;2.03;;
10122;SDS011;5101;49.038;8.710;2024-03-25T05:25:36;5.47;;;2.42;;
10122;SDS011;5101;49.038;8.710;2024-03-25T05:28:02;4.60;;;1.85;;
10122;SDS011;5101;49.038;8.710;2024-03-25T05:30:27;3.63;;;1.50;;
10122;SDS011;5101;49.038;8.710;2024-03-25T05:32:53;4.68;;;2.15;;
10122;SDS011;5101;49.038;8.710;2024-03-25T05:35:18;3.75;;;1.95;;
10122;SDS011;5101;49.038;8.710;2024-03-25T05:37:44;6.50;;;1.88;;
10122;SDS011;5101;49.038;8.710;2024-03-25T05:40:11;3.17;;;2.05;;
10122;SDS011;5101;49.038;8.710;2024-03-25T05:42:37;3.92;;;2.50;;
10122;SDS011;5101;49.038;8.710;2024-03-25T05:45:03;9.25;;;1.95;;
10122;SDS011;5101;49.038;8.710;2024-03-25T05:47:28;3.30;;;2.50;;
10122;SDS011;5101;49.038;8.710;2024-03-25T05:49:54;3.38;;;2.05;;
10122;SDS011;5101;49.038;8.710;2024-03-25T05:52:20;5.70;;;2.47;;
10122;SDS011;5101;49.038;8.710;2024-03-25T05:54:45;5.13;;;2.35;;
10122;SDS011;5101;49.038;8.710;2024-03-25T05:57:11;4.88;;;2.25;;
10122;SDS011;5101;49.038;8.710;2024-03-25T05:59:36;6.70;;;2.37;;
10122;SDS011;5101;49.038;8.710;2024-03-25T06:02:02;5.47;;;3.17;;
10122;SDS011;5101;49.038;8.710;2024-03-25T06:04:27;8.25;;;3.45;;
10122;SDS011;5101;49.038;8.710;2024-03-25T06:06:53;6.60;;;3.33;;
10122;SDS011;5101;49.038;8.710;2024-03-25T06:09:18;5.13;;;2.70;;
10122;SDS011;5101;49.038;8.710;2024-03-25T06:11:44;6.77;;;2.40;;
10122;SDS011;5101;49.038;8.710;2024-03-25T06:14:09;6.77;;;2.00;;
10122;SDS011;5101;49.038;8.710;2024-03-25T06:16:34;4.40;;;2.23;;
10122;SDS011;5101;49.038;8.710;2024-03-25T06:19:00;6.43;;;2.40;;
10122;SDS011;5101;49.038;8.710;2024-03-25T06:21:25;4.85;;;1.95;;
10122;SDS011;5101;49.038;8.710;2024-03-25T06:23:51;5.43;;;2.50;;
10122;SDS011;5101;49.038;8.710;2024-03-25T06:26:16;6.25;;;2.45;;
10122;SDS011;5101;49.038;8.710;2024-03-25T06:28:42;6.47;;;2.90;;
10122;SDS011;5101;49.038;8.710;2024-03-25T06:31:08;7.37;;;2.97;;
10122;SDS011;5101;49.038;8.710;2024-03-25T06:33:52;4.15;;;2.10;;
10122;SDS011;5101;49.038;8.710;2024-03-25T06:36:36;3.28;;;1.80;;
10122;SDS011;5101;49.038;8.710;2024-03-25T06:39:02;5.28;;;2.28;;
10122;SDS011;5101;49.038;8.710;2024-03-25T06:41:28;4.45;;;2.20;;
10122;SDS011;5101;49.038;8.710;2024-03-25T06:43:53;3.78;;;2.03;;
10122;SDS011;5101;49.038;8.710;2024-03-25T06:46:19;4.25;;;2.50;;
10122;SDS011;5101;49.038;8.710;2024-03-25T06:48:44;3.63;;;1.60;;
10122;SDS011;5101;49.038;8.710;2024-03-25T06:51:10;4.38;;;2.00;;
10122;SDS011;5101;49.038;8.710;2024-03-25T06:53:35;3.63;;;1.80;;
10122;SDS011;5101;49.038;8.710;2024-03-25T06:56:00;4.00;;;2.03;;
10122;SDS011;5101;49.038;8.710;2024-03-25T06:58:26;2.83;;;1.60;;
10122;SDS011;5101;49.038;8.710;2024-03-25T07:00:53;4.20;;;1.63;;
10122;SDS011;5101;49.038;8.710;2024-03-25T07:03:19;3.55;;;1.85;;
10122;SDS011;5101;49.038;8.710;2024-03-25T07:05:46;4.43;;;2.00;;
10122;SDS011;5101;49.038;8.710;2024-03-25T07:08:13;4.63;;;1.67;;
10122;SDS011;5101;49.038;8.710;2024-03-25T07:10:38;5.25;;;2.03;;
10122;SDS011;5101;49.038;8.710;2024-03-25T07:13:06;3.28;;;1.70;;
10122;SDS011;5101;49.038;8.710;2024-03-25T07:15:32;3.25;;;1.40;;
10122;SDS011;5101;49.038;8.710;2024-03-25T07:17:57;4.90;;;1.80;;
10122;SDS011;5101;49.038;8.710;2024-03-25T07:20:23;3.17;;;1.40;;
10122;SDS011;5101;49.038;8.710;2024-03-25T07:22:49;4.07;;;1.83;;
10122;SDS011;5101;49.038;8.710;2024-03-25T07:25:14;3.72;;;1.40;;
10122;SDS011;5101;49.038;8.710;2024-03-25T07:27:40;2.58;;;1.48;;
10122;SDS011;5101;49.038;8.710;2024-03-25T07:30:09;3.83;;;1.48;;
10122;SDS011;5101;49.038;8.710;2024-03-25T07:32:35;3.67;;;1.45;;
10122;SDS011;5101;49.038;8.710;2024-03-25T07:35:01;4.25;;;1.70;;
10122;SDS011;5101;49.038;8.710;2024-03-25T07:37:26;5.03;;;1.45;;
10122;SDS011;5101;49.038;8.710;2024-03-25T07:39:52;3.38;;;1.70;;
10122;SDS011;5101;49.038;8.710;2024-03-25T07:42:17;5.60;;;1.77;;
10122;SDS011;5101;49.038;8.710;2024-03-25T07:44:43;3.10;;;1.65;;
10122;SDS011;5101;49.038;8.710;2024-03-25T07:47:08;4.95;;;1.85;;
10122;SDS011;5101;49.038;8.710;2024-03-25T07:49:34;3.25;;;1.55;;
10122;SDS011;5101;49.038;8.710;2024-03-25T07:52:00;2.65;;;1.73;;
10122;SDS011;5101;49.038;8.710;2024-03-25T07:54:25;4.38;;;1.67;;
10122;SDS011;5101;49.038;8.710;2024-03-25T07:56:51;4.88;;;1.92;;
10122;SDS011;5101;49.038;8.710;2024-03-25T07:59:17;4.43;;;1.40;;
10122;SDS011;5101;49.038;8.710;2024-03-25T08:01:43;3.60;;;1.55;;
10122;SDS011;5101;49.038;8.710;2024-03-25T08:04:08;4.60;;;1.42;;
10122;SDS011;5101;49.038;8.710;2024-03-25T08:06:34;4.25;;;1.83;;
10122;SDS011;5101;49.038;8.710;2024-03-25T08:08:59;5.50;;;1.70;;
10122;SDS011;5101;49.038;8.710;2024-03-25T08:11:25;6.47;;;1.60;;
10122;SDS011;5101;49.038;8.710;2024-03-25T08:13:51;6.90;;;1.50;;
10122;SDS011;5101;49.038;8.710;2024-03-25T08:16:17;4.07;;;1.73;;
10122;SDS011;5101;49.038;8.710;2024-03-25T08:18:42;2.72;;;1.40;;
10122;SDS011;5101;49.038;8.710;2024-03-25T08:21:08;3.15;;;1.60;;
10122;SDS011;5101;49.038;8.710;2024-03-25T08:23:33;2.90;;;1.30;;
10122;SDS011;5101;49.038;8.710;2024-03-25T08:25:59;1.58;;;1.10;;
10122;SDS011;5101;49.038;8.710;2024-03-25T08:28:26;2.90;;;1.33;;
10122;SDS011;5101;49.038;8.710;2024-03-25T08:30:51;3.70;;;1.23;;
10122;SDS011;5101;49.038;8.710;2024-03-25T08:33:17;2.33;;;0.95;;
10122;SDS011;5101;49.038;8.710;2024-03-25T08:35:42;3.05;;;1.13;;
10122;SDS011;5101;49.038;8.710;2024-03-25T08:38:08;3.78;;;1.20;;
10122;SDS011;5101;49.038;8.710;2024-03-25T08:40:33;2.35;;;0.80;;
10122;SDS011;5101;49.038;8.710;2024-03-25T08:42:59;2.72;;;1.20;;
10122;SDS011;5101;49.038;8.710;2024-03-25T08:45:24;3.53;;;1.10;;
10122;SDS011;5101;49.038;8.710;2024-03-25T08:47:50;2.35;;;1.20;;
10122;SDS011;5101;49.038;8.710;2024-03-25T08:50:15;4.40;;;1.30;;
10122;SDS011;5101;49.038;8.710;2024-03-25T08:52:41;2.30;;;1.00;;
10122;SDS011;5101;49.038;8.710;2024-03-25T08:55:06;3.03;;;1.10;;
10122;SDS011;5101;49.038;8.710;2024-03-25T08:57:32;1.52;;;0.90;;
10122;SDS011;5101;49.038;8.710;2024-03-25T08:59:57;1.80;;;0.80;;
10122;SDS011;5101;49.038;8.710;2024-03-25T09:02:23;1.92;;;0.90;;
10122;SDS011;5101;49.038;8.710;2024-03-25T09:04:48;4.47;;;1.30;;
10122;SDS011;5101;49.038;8.710;2024-03-25T09:07:14;3.90;;;1.13;;
10122;SDS011;5101;49.038;8.710;2024-03-25T09:09:39;2.22;;;1.17;;
10122;SDS011;5101;49.038;8.710;2024-03-25T09:12:34;2.42;;;1.08;;
10122;SDS011;5101;49.038;8.710;2024-03-25T09:14:59;2.17;;;0.90;;
10122;SDS011;5101;49.038;8.710;2024-03-25T09:17:25;1.83;;;0.88;;
10122;SDS011;5101;49.038;8.710;2024-03-25T09:19:50;2.72;;;0.90;;
10122;SDS011;5101;49.038;8.710;2024-03-25T09:22:19;4.50;;;1.00;;
10122;SDS011;5101;49.038;8.710;2024-03-25T09:24:44;2.15;;;0.80;;
10122;SDS011;5101;49.038;8.710;2024-03-25T09:27:10;2.67;;;0.80;;
10122;SDS011;5101;49.038;8.710;2024-03-25T09:29:35;2.22;;;0.80;;
10122;SDS011;5101;49.038;8.710;2024-03-25T09:32:01;1.05;;;0.70;;
10122;SDS011;5101;49.038;8.710;2024-03-25T09:34:28;3.60;;;1.05;;
10122;SDS011;5101;49.038;8.710;2024-03-25T09:36:53;1.55;;;0.70;;
10122;SDS011;5101;49.038;8.710;2024-03-25T09:39:19;2.13;;;1.00;;
10122;SDS011;5101;49.038;8.710;2024-03-25T09:41:44;1.52;;;0.90;;
10122;SDS011;5101;49.038;8.710;2024-03-25T09:44:13;2.45;;;0.98;;
10122;SDS011;5101;49.038;8.710;2024-03-25T09:46:38;3.15;;;1.10;;
10122;SDS011;5101;49.038;8.710;2024-03-25T09:49:05;1.17;;;0.80;;
10122;SDS011;5101;49.038;8.710;2024-03-25T09:51:31;3.35;;;1.08;;
10122;SDS011;5101;49.038;8.710;2024-03-25T09:53:57;2.42;;;0.80;;
10122;SDS011;5101;49.038;8.710;2024-03-25T09:56:22;2.88;;;0.90;;
10122;SDS011;5101;49.038;8.710;2024-03-25T09:58:48;2.47;;;0.82;;
10122;SDS011;5101;49.038;8.710;2024-03-25T10:01:14;2.35;;;0.90;;
10122;SDS011;5101;49.038;8.710;2024-03-25T10:03:40;2.42;;;0.98;;
10122;SDS011;5101;49.038;8.710;2024-03-25T10:06:05;4.20;;;1.10;;
10122;SDS011;5101;49.038;8.710;2024-03-25T10:08:33;1.38;;;0.95;;
10122;SDS011;5101;49.038;8.710;2024-03-25T10:10:58;2.78;;;1.00;;
10122;SDS011;5101;49.038;8.710;2024-03-25T10:13:27;2.15;;;0.90;;
10122;SDS011;5101;49.038;8.710;2024-03-25T10:15:52;3.17;;;0.70;;
10122;SDS011;5101;49.038;8.710;2024-03-25T10:18:19;1.95;;;0.85;;
10122;SDS011;5101;49.038;8.710;2024-03-25T10:20:48;3.17;;;1.08;;
10122;SDS011;5101;49.038;8.710;2024-03-25T10:23:14;3.65;;;0.85;;
10122;SDS011;5101;49.038;8.710;2024-03-25T10:25:40;1.50;;;0.90;;
10122;SDS011;5101;49.038;8.710;2024-03-25T10:28:06;2.13;;;1.27;;
10122;SDS011;5101;49.038;8.710;2024-03-25T10:30:33;2.38;;;0.75;;
10122;SDS011;5101;49.038;8.710;2024-03-25T10:32:59;1.90;;;0.90;;
10122;SDS011;5101;49.038;8.710;2024-03-25T10:35:29;1.70;;;0.98;;
10122;SDS011;5101;49.038;8.710;2024-03-25T10:37:58;2.33;;;0.73;;
10122;SDS011;5101;49.038;8.710;2024-03-25T10:40:28;2.17;;;0.90;;
10122;SDS011;5101;49.038;8.710;2024-03-25T10:43:03;3.05;;;0.90;;
10122;SDS011;5101;49.038;8.710;2024-03-25T10:45:43;2.92;;;0.98;;
10122;SDS011;5101;49.038;8.710;2024-03-25T10:48:12;1.77;;;0.75;;
10122;SDS011;5101;49.038;8.710;2024-03-25T10:50:41;2.28;;;0.90;;
10122;SDS011;5101;49.038;8.710;2024-03-25T10:53:08;3.28;;;1.00;;
10122;SDS011;5101;49.038;8.710;2024-03-25T10:55:36;1.90;;;0.90;;
10122;SDS011;5101;49.038;8.710;2024-03-25T10:58:03;0.98;;;0.85;;
10122;SDS011;5101;49.038;8.710;2024-03-25T11:00:30;2.03;;;0.90;;
10122;SDS011;5101;49.038;8.710;2024-03-25T11:02:57;1.60;;;0.80;;
10122;SDS011;5101;49.038;8.710;2024-03-25T11:05:24;1.77;;;0.80;;
10122;SDS011;5101;49.038;8.710;2024-03-25T11:07:50;3.63;;;0.90;;
10122;SDS011;5101;49.038;8.710;2024-03-25T11:10:16;1.27;;;0.90;;
10122;SDS011;5101;49.038;8.710;2024-03-25T11:12:41;1.30;;;0.68;;
10122;SDS011;5101;49.038;8.710;2024-03-25T11:15:08;2.63;;;0.73;;
10122;SDS011;5101;49.038;8.710;2024-03-25T11:17:34;1.48;;;0.80;;
10122;SDS011;5101;49.038;8.710;2024-03-25T11:20:07;1.73;;;0.90;;
10122;SDS011;5101;49.038;8.710;2024-03-25T11:22:32;1.45;;;0.73;;
10122;SDS011;5101;49.038;8.710;2024-03-25T11:25:04;1.42;;;0.70;;
10122;SDS011;5101;49.038;8.710;2024-03-25T11:27:31;1.58;;;0.88;;
10122;SDS011;5101;49.038;8.710;2024-03-25T11:30:00;3.75;;;0.70;;
10122;SDS011;5101;49.038;8.710;2024-03-25T11:32:26;1.70;;;0.82;;
10122;SDS011;5101;49.038;8.710;2024-03-25T11:34:52;2.47;;;0.80;;
10122;SDS011;5101;49.038;8.710;2024-03-25T11:37:18;2.83;;;0.90;;
10122;SDS011;5101;49.038;8.710;2024-03-25T11:39:43;1.23;;;0.80;;
10122;SDS011;5101;49.038;8.710;2024-03-25T11:42:09;2.78;;;0.85;;
10122;SDS011;5101;49.038;8.710;2024-03-25T11:44:38;2.25;;;0.90;;
10122;SDS011;5101;49.038;8.710;2024-03-25T11:47:05;1.92;;;0.85;;
10122;SDS011;5101;49.038;8.710;2024-03-25T11:49:36;3.20;;;0.70;;
10122;SDS011;5101;49.038;8.710;2024-03-25T11:52:05;2.10;;;0.95;;
10122;SDS011;5101;49.038;8.710;2024-03-25T11:54:32;1.15;;;0.50;;
10122;SDS011;5101;49.038;8.710;2024-03-25T11:56:57;6.55;;;1.05;;
10122;SDS011;5101;49.038;8.710;2024-03-25T11:59:24;2.05;;;0.73;;
10122;SDS011;5101;49.038;8.710;2024-03-25T12:01:50;2.55;;;0.98;;
10122;SDS011;5101;49.038;8.710;2024-03-25T12:04:16;2.05;;;0.98;;
10122;SDS011;5101;49.038;8.710;2024-03-25T12:06:43;2.45;;;0.80;;
10122;SDS011;5101;49.038;8.710;2024-03-25T12:09:10;3.95;;;0.73;;
10122;SDS011;5101;49.038;8.710;2024-03-25T12:11:54;1.85;;;0.60;;
10122;SDS011;5101;49.038;8.710;2024-03-25T12:14:21;3.67;;;0.80;;
10122;SDS011;5101;49.038;8.710;2024-03-25T12:16:47;1.65;;;0.70;;
10122;SDS011;5101;49.038;8.710;2024-03-25T12:19:15;2.25;;;0.70;;
10122;SDS011;5101;49.038;8.710;2024-03-25T12:21:40;1.45;;;0.80;;
10122;SDS011;5101;49.038;8.710;2024-03-25T12:24:06;1.30;;;0.70;;
10122;SDS011;5101;49.038;8.710;2024-03-25T12:26:33;1.27;;;0.68;;
10122;SDS011;5101;49.038;8.710;2024-03-25T12:28:59;1.42;;;0.60;;
10122;SDS011;5101;49.038;8.710;2024-03-25T12:31:25;2.03;;;0.85;;
10122;SDS011;5101;49.038;8.710;2024-03-25T12:33:50;2.88;;;0.80;;
10122;SDS011;5101;49.038;8.710;2024-03-25T12:36:16;2.55;;;0.90;;
10122;SDS011;5101;49.038;8.710;2024-03-25T12:38:41;1.00;;;0.52;;
10122;SDS011;5101;49.038;8.710;2024-03-25T12:41:08;0.93;;;0.60;;
10122;SDS011;5101;49.038;8.710;2024-03-25T12:43:43;2.40;;;0.65;;
10122;SDS011;5101;49.038;8.710;2024-03-25T12:46:10;1.52;;;0.77;;
10122;SDS011;5101;49.038;8.710;2024-03-25T12:48:36;1.55;;;0.75;;
10122;SDS011;5101;49.038;8.710;2024-03-25T12:51:02;1.10;;;0.63;;
10122;SDS011;5101;49.038;8.710;2024-03-25T12:53:28;1.33;;;0.75;;
10122;SDS011;5101;49.038;8.710;2024-03-25T12:55:54;1.35;;;0.65;;
10122;SDS011;5101;49.038;8.710;2024-03-25T12:58:19;2.85;;;0.73;;
10122;SDS011;5101;49.038;8.710;2024-03-25T13:00:45;5.20;;;1.08;;
10122;SDS011;5101;49.038;8.710;2024-03-25T13:03:10;4.10;;;0.90;;
10122;SDS011;5101;49.038;8.710;2024-03-25T13:05:37;1.60;;;0.70;;
10122;SDS011;5101;49.038;8.710;2024-03-25T13:08:03;2.35;;;0.70;;
10122;SDS011;5101;49.038;8.710;2024-03-25T13:10:29;2.13;;;0.70;;
10122;SDS011;5101;49.038;8.710;2024-03-25T13:12:56;4.75;;;1.00;;
10122;SDS011;5101;49.038;8.710;2024-03-25T13:15:21;1.25;;;0.57;;
10122;SDS011;5101;49.038;8.710;2024-03-25T13:17:47;1.05;;;0.50;;
10122;SDS011;5101;49.038;8.710;2024-03-25T13:20:13;1.70;;;0.65;;
10122;SDS011;5101;49.038;8.710;2024-03-25T13:22:38;1.77;;;0.80;;
10122;SDS011;5101;49.038;8.710;2024-03-25T13:25:05;1.67;;;0.88;;
10122;SDS011;5101;49.038;8.710;2024-03-25T13:27:31;2.35;;;0.55;;
10122;SDS011;5101;49.038;8.710;2024-03-25T13:29:56;1.23;;;0.60;;
10122;SDS011;5101;49.038;8.710;2024-03-25T13:32:22;1.63;;;0.50;;
10122;SDS011;5101;49.038;8.710;2024-03-25T13:34:48;3.38;;;0.70;;
10122;SDS011;5101;49.038;8.710;2024-03-25T13:37:14;1.05;;;0.60;;
10122;SDS011;5101;49.038;8.710;2024-03-25T13:39:40;1.30;;;0.63;;
10122;SDS011;5101;49.038;8.710;2024-03-25T13:42:05;1.20;;;0.70;;
10122;SDS011;5101;49.038;8.710;2024-03-25T13:44:31;2.25;;;0.80;;
10122;SDS011;5101;49.038;8.710;2024-03-25T13:46:56;1.58;;;0.80;;
10122;SDS011;5101;49.038;8.710;2024-03-25T13:49:22;3.22;;;1.00;;
10122;SDS011;5101;49.038;8.710;2024-03-25T13:51:50;1.50;;;0.70;;
10122;SDS011;5101;49.038;8.710;2024-03-25T13:54:21;1.42;;;0.60;;
10122;SDS011;5101;49.038;8.710;2024-03-25T13:56:46;2.80;;;0.65;;
10122;SDS011;5101;49.038;8.710;2024-03-25T13:59:12;2.40;;;0.90;;
10122;SDS011;5101;49.038;8.710;2024-03-25T14:01:37;1.38;;;0.80;;
10122;SDS011;5101;49.038;8.710;2024-03-25T14:04:03;2.75;;;0.80;;
10122;SDS011;5101;49.038;8.710;2024-03-25T14:06:29;1.20;;;0.70;;
10122;SDS011;5101;49.038;8.710;2024-03-25T14:08:54;1.92;;;0.90;;
10122;SDS011;5101;49.038;8.710;2024-03-25T14:11:20;2.35;;;1.27;;
10122;SDS011;5101;49.038;8.710;2024-03-25T14:13:45;1.75;;;0.88;;
10122;SDS011;5101;49.038;8.710;2024-03-25T14:16:11;2.15;;;0.80;;
10122;SDS011;5101;49.038;8.710;2024-03-25T14:18:36;2.40;;;0.90;;
10122;SDS011;5101;49.038;8.710;2024-03-25T14:21:02;2.05;;;0.80;;
10122;SDS011;5101;49.038;8.710;2024-03-25T14:23:27;1.38;;;0.75;;
10122;SDS011;5101;49.038;8.710;2024-03-25T14:25:53;1.02;;;0.93;;
10122;SDS011;5101;49.038;8.710;2024-03-25T14:28:18;1.42;;;0.85;;
10122;SDS011;5101;49.038;8.710;2024-03-25T14:30:44;1.95;;;0.98;;
10122;SDS011;5101;49.038;8.710;2024-03-25T14:33:09;2.10;;;1.02;;
10122;SDS011;5101;49.038;8.710;2024-03-25T14:35:35;0.82;;;0.80;;
10122;SDS011;5101;49.038;8.710;2024-03-25T14:38:00;1.90;;;1.10;;
10122;SDS011;5101;49.038;8.710;2024-03-25T14:40:26;2.72;;;1.00;;
10122;SDS011;5101;49.038;8.710;2024-03-25T14:42:52;1.95;;;0.90;;
10122;SDS011;5101;49.038;8.710;2024-03-25T14:45:17;3.38;;;1.10;;
10122;SDS011;5101;49.038;8.710;2024-03-25T14:47:43;2.03;;;1.30;;
10122;SDS011;5101;49.038;8.710;2024-03-25T14:50:08;2.78;;;1.13;;
10122;SDS011;5101;49.038;8.710;2024-03-25T14:52:34;1.63;;;1.02;;
10122;SDS011;5101;49.038;8.710;2024-03-25T14:55:01;3.17;;;1.25;;